createdAt,value
2023-01-22T00:01:25.931Z,100.00
2023-01-22T00:03:54.828Z,100.00
2023-01-22T00:06:23.640Z,100.00
2023-01-22T00:08:52.222Z,100.00
2023-01-22T00:11:22.552Z,100.00
2023-01-22T00:13:52.230Z,100.00
2023-01-22T00:16:22.595Z,100.00
2023-01-22T00:18:50.566Z,100.00
2023-01-22T00:21:20.279Z,100.00
2023-01-22T00:23:51.753Z,100.00
2023-01-22T00:26:20.901Z,100.00
2023-01-22T00:28:48.499Z,100.00
2023-01-22T00:31:17.729Z,100.00
2023-01-22T00:33:47.351Z,100.00
2023-01-22T00:36:20.636Z,100.00
2023-01-22T00:38:49.430Z,100.00
2023-01-22T00:41:18.443Z,99.87
2023-01-22T00:43:46.411Z,99.97
2023-01-22T00:46:19.419Z,99.61
2023-01-22T00:48:50.479Z,99.56
2023-01-22T00:51:18.422Z,99.40
2023-01-22T00:53:46.832Z,99.27
2023-01-22T00:56:16.130Z,99.53
2023-01-22T00:58:44.125Z,99.42
2023-01-22T01:01:15.508Z,99.49
2023-01-22T01:03:45.535Z,99.62
2023-01-22T01:06:15.971Z,99.89
2023-01-22T01:08:47.344Z,99.93
2023-01-22T01:11:21.894Z,100.00
2023-01-22T01:13:51.664Z,100.00
2023-01-22T01:16:22.247Z,100.00
2023-01-22T01:18:49.913Z,100.00
2023-01-22T01:21:19.252Z,100.00
2023-01-22T01:23:47.280Z,100.00
2023-01-22T01:26:17.108Z,100.00
2023-01-22T01:28:45.705Z,100.00
2023-01-22T01:31:16.704Z,100.00
2023-01-22T01:33:46.006Z,100.00
2023-01-22T01:36:46.809Z,100.00
2023-01-22T01:39:12.234Z,100.00
2023-01-22T01:41:39.831Z,100.00
2023-01-22T01:44:11.524Z,100.00
2023-01-22T01:46:44.147Z,100.00
2023-01-22T01:49:39.914Z,100.00
2023-01-22T01:52:14.302Z,100.00
2023-01-22T01:54:46.648Z,100.00
2023-01-22T01:57:19.696Z,100.00
2023-01-22T01:59:49.675Z,100.00
2023-01-22T02:02:20.912Z,100.00
2023-01-22T02:04:50.179Z,100.00
2023-01-22T02:07:18.404Z,100.00
2023-01-22T02:09:46.199Z,100.00
2023-01-22T02:12:13.855Z,100.00
2023-01-22T02:14:46.958Z,100.00
2023-01-22T02:17:16.978Z,100.00
2023-01-22T02:19:44.940Z,100.00
2023-01-22T02:22:15.471Z,100.00
2023-01-22T02:24:43.276Z,100.00
2023-01-22T02:27:10.912Z,100.00
2023-01-22T02:29:38.774Z,100.00
2023-01-22T02:32:06.477Z,100.00
2023-01-22T02:34:36.605Z,100.00
2023-01-22T02:37:04.655Z,100.00
2023-01-22T02:39:35.679Z,100.00
2023-01-22T02:42:04.334Z,100.00
2023-01-22T02:44:31.920Z,100.00
2023-01-22T02:47:02.225Z,100.00
2023-01-22T02:49:33.458Z,100.00
2023-01-22T02:52:03.334Z,100.00
2023-01-22T02:54:30.916Z,100.00
2023-01-22T02:56:58.487Z,100.00
2023-01-22T02:59:26.210Z,100.00
2023-01-22T03:01:53.913Z,100.00
2023-01-22T03:04:21.572Z,100.00
2023-01-22T03:06:51.368Z,100.00
2023-01-22T03:09:19.317Z,100.00
2023-01-22T03:11:48.217Z,100.00
2023-01-22T03:14:35.957Z,100.00
2023-01-22T03:17:21.415Z,100.00
2023-01-22T03:20:06.152Z,100.00
2023-01-22T03:22:34.319Z,100.00
2023-01-22T03:25:02.636Z,100.00
2023-01-22T03:27:32.327Z,100.00
2023-01-22T03:30:00.061Z,100.00
2023-01-22T03:32:27.755Z,100.00
2023-01-22T03:34:55.317Z,100.00
2023-01-22T03:37:27.571Z,100.00
2023-01-22T03:39:57.364Z,100.00
2023-01-22T03:42:26.556Z,100.00
2023-01-22T03:44:54.107Z,100.00
2023-01-22T03:47:21.735Z,100.00
2023-01-22T03:49:49.315Z,100.00
2023-01-22T03:52:16.943Z,100.00
2023-01-22T03:54:44.619Z,100.00
2023-01-22T03:57:17.086Z,100.00
2023-01-22T03:59:44.701Z,100.00
2023-01-22T04:02:12.319Z,100.00
2023-01-22T04:04:39.959Z,100.00
2023-01-22T04:07:07.562Z,100.00
2023-01-22T04:09:35.195Z,100.00
2023-01-22T04:12:02.809Z,100.00
2023-01-22T04:14:30.394Z,100.00
2023-01-22T04:16:58.098Z,100.00
2023-01-22T04:19:25.820Z,100.00
2023-01-22T04:21:53.455Z,100.00
2023-01-22T04:24:21.104Z,100.00
2023-01-22T04:26:48.750Z,100.00
2023-01-22T04:29:16.358Z,100.00
2023-01-22T04:31:46.447Z,100.00
2023-01-22T04:34:16.567Z,100.00
2023-01-22T04:36:44.235Z,100.00
2023-01-22T04:39:11.806Z,100.00
2023-01-22T04:41:39.461Z,100.00
2023-01-22T04:44:08.353Z,100.00
2023-01-22T04:46:38.442Z,100.00
2023-01-22T04:49:06.039Z,100.00
2023-01-22T04:51:33.633Z,100.00
2023-01-22T04:54:05.041Z,100.00
2023-01-22T04:56:32.625Z,100.00
2023-01-22T04:59:00.388Z,100.00
2023-01-22T05:01:28.070Z,100.00
2023-01-22T05:03:55.750Z,100.00
2023-01-22T05:06:23.405Z,100.00
2023-01-22T05:08:52.754Z,100.00
2023-01-22T05:11:20.352Z,100.00
2023-01-22T05:13:50.588Z,100.00
2023-01-22T05:16:18.225Z,100.00
2023-01-22T05:18:45.890Z,100.00
2023-01-22T05:21:16.102Z,100.00
2023-01-22T05:23:44.486Z,100.00
2023-01-22T05:26:12.087Z,100.00
2023-01-22T05:28:39.677Z,100.00
2023-01-22T05:31:10.970Z,100.00
2023-01-22T05:33:39.542Z,100.00
2023-01-22T05:36:07.966Z,100.00
2023-01-22T05:38:35.755Z,100.00
2023-01-22T05:41:03.351Z,100.00
2023-01-22T05:43:31.012Z,100.00
2023-01-22T05:46:02.976Z,100.00
2023-01-22T05:48:30.603Z,100.00
2023-01-22T05:51:00.284Z,100.00
2023-01-22T05:53:27.962Z,100.00
2023-01-22T05:55:55.550Z,100.00
2023-01-22T05:58:23.131Z,100.00
2023-01-22T06:00:53.615Z,100.00
2023-01-22T06:03:21.193Z,100.00
2023-01-22T06:06:04.361Z,100.00
2023-01-22T06:08:34.180Z,100.00
2023-01-22T06:11:04.080Z,100.00
2023-01-22T06:13:32.475Z,100.00
2023-01-22T06:16:01.039Z,100.00
2023-01-22T06:18:31.071Z,100.00
2023-01-22T06:21:06.817Z,100.00
2023-01-22T06:23:35.082Z,100.00
2023-01-22T06:26:04.231Z,100.00
2023-01-22T06:28:34.177Z,100.00
2023-01-22T06:31:05.754Z,100.00
2023-01-22T06:33:35.087Z,100.00
2023-01-22T06:36:03.168Z,100.00
2023-01-22T06:38:33.589Z,100.00
2023-01-22T06:41:02.306Z,100.00
2023-01-22T06:43:30.066Z,100.00
2023-01-22T06:45:57.712Z,100.00
2023-01-22T06:48:25.302Z,100.00
2023-01-22T06:50:52.894Z,100.00
2023-01-22T06:53:20.898Z,100.00
2023-01-22T06:55:48.542Z,100.00
2023-01-22T06:58:16.427Z,100.00
2023-01-22T07:00:46.439Z,100.00
2023-01-22T07:03:16.872Z,100.00
2023-01-22T07:05:44.785Z,100.00
2023-01-22T07:08:16.335Z,100.00
2023-01-22T07:10:46.193Z,100.00
2023-01-22T07:13:15.977Z,100.00
2023-01-22T07:15:44.052Z,100.00
2023-01-22T07:18:14.935Z,100.00
2023-01-22T07:20:43.594Z,100.00
2023-01-22T07:23:13.394Z,100.00
2023-01-22T07:25:41.026Z,100.00
2023-01-22T07:28:11.851Z,100.00
2023-01-22T07:30:40.579Z,100.00
2023-01-22T07:33:11.666Z,100.00
2023-01-22T07:35:39.352Z,100.00
2023-01-22T07:38:09.664Z,100.00
2023-01-22T07:40:37.310Z,100.00
2023-01-22T07:43:08.683Z,100.00
2023-01-22T07:45:36.411Z,100.00
2023-01-22T07:48:07.172Z,100.00
2023-01-22T07:50:40.084Z,100.00
2023-01-22T07:53:11.740Z,100.00
2023-01-22T07:55:41.311Z,100.00
2023-01-22T07:58:09.133Z,100.00
2023-01-22T08:00:37.408Z,100.00
2023-01-22T08:03:06.234Z,100.00
2023-01-22T08:05:34.236Z,100.00
2023-01-22T08:08:01.811Z,100.00
2023-01-22T08:10:32.071Z,100.00
2023-01-22T08:12:59.744Z,100.00
2023-01-22T08:15:29.744Z,100.00
2023-01-22T08:18:00.041Z,100.00
2023-01-22T08:20:27.753Z,99.13
2023-01-22T08:23:01.836Z,98.21
2023-01-22T08:25:30.247Z,96.88
2023-01-22T08:27:57.835Z,96.31
2023-01-22T08:30:25.426Z,95.50
2023-01-22T08:32:53.578Z,96.02
2023-01-22T08:35:21.692Z,95.59
2023-01-22T08:37:49.433Z,96.04
2023-01-22T08:40:17.824Z,95.59
2023-01-22T08:42:52.738Z,97.14
2023-01-22T08:45:25.969Z,97.41
2023-01-22T08:47:59.772Z,97.54
2023-01-22T08:50:29.292Z,96.97
2023-01-22T08:52:58.116Z,96.54
2023-01-22T08:55:27.722Z,96.90
2023-01-22T08:57:57.318Z,96.69
2023-01-22T09:00:28.321Z,96.84
2023-01-22T09:03:01.251Z,95.75
2023-01-22T09:05:29.444Z,94.81
2023-01-22T09:07:57.340Z,96.50
2023-01-22T09:10:25.295Z,96.65
2023-01-22T09:12:53.216Z,97.06
2023-01-22T09:15:20.823Z,96.69
2023-01-22T09:17:50.792Z,96.91
2023-01-22T09:20:18.837Z,97.28
2023-01-22T09:22:47.339Z,97.38
2023-01-22T09:25:20.640Z,97.57
2023-01-22T09:27:50.733Z,98.18
2023-01-22T09:30:21.090Z,98.06
2023-01-22T09:32:48.851Z,97.22
2023-01-22T09:35:16.728Z,97.20
2023-01-22T09:37:45.802Z,96.88
2023-01-22T09:40:30.309Z,96.38
2023-01-22T09:43:08.046Z,96.69
2023-01-22T09:45:40.375Z,96.37
2023-01-22T09:48:15.451Z,95.70
2023-01-22T09:50:43.997Z,96.17
2023-01-22T09:53:17.014Z,97.05
2023-01-22T09:55:52.019Z,97.13
2023-01-22T09:58:25.540Z,97.26
2023-01-22T10:01:01.079Z,96.98
2023-01-22T10:03:40.653Z,96.93
2023-01-22T10:06:13.938Z,97.06
2023-01-22T10:08:54.114Z,97.78
2023-01-22T10:11:21.882Z,97.42
2023-01-22T10:13:52.823Z,97.19
2023-01-22T10:16:20.472Z,97.92
2023-01-22T10:19:14.759Z,98.17
2023-01-22T10:21:59.812Z,98.58
2023-01-22T10:24:28.913Z,99.22
2023-01-22T10:26:59.729Z,98.96
2023-01-22T10:29:37.220Z,99.39
2023-01-22T10:32:18.684Z,100.00
2023-01-22T10:35:01.949Z,100.00
2023-01-22T10:37:33.471Z,100.00
2023-01-22T10:40:01.347Z,100.00
2023-01-22T10:42:30.488Z,100.00
2023-01-22T10:45:12.468Z,100.00
2023-01-22T10:47:40.059Z,100.00
2023-01-22T10:50:15.835Z,100.00
2023-01-22T10:52:53.734Z,100.00
2023-01-22T10:55:25.923Z,100.00
2023-01-22T10:58:18.020Z,100.00
2023-01-22T11:00:58.654Z,100.00
2023-01-22T11:03:34.984Z,100.00
2023-01-22T11:06:14.306Z,100.00
2023-01-22T11:08:52.653Z,100.00
2023-01-22T11:11:27.322Z,100.00
2023-01-22T11:13:59.139Z,100.00
2023-01-22T11:16:33.216Z,100.00
2023-01-22T11:19:05.958Z,100.00
2023-01-22T11:21:41.872Z,100.00
2023-01-22T11:24:41.195Z,100.00
2023-01-22T11:27:46.089Z,100.00
2023-01-22T11:30:38.788Z,100.00
2023-01-22T11:33:17.167Z,100.00
2023-01-22T11:36:04.096Z,100.00
2023-01-22T11:38:47.116Z,100.00
2023-01-22T11:41:22.894Z,100.00
2023-01-22T11:44:16.877Z,100.00
2023-01-22T11:46:50.531Z,100.00
2023-01-22T11:49:50.823Z,100.00
2023-01-22T11:52:43.154Z,100.00
2023-01-22T11:55:27.766Z,100.00
2023-01-22T11:58:04.352Z,100.00
2023-01-22T12:00:53.397Z,100.00
2023-01-22T12:03:50.685Z,100.00
2023-01-22T12:06:46.120Z,100.00
2023-01-22T12:09:27.217Z,100.00
2023-01-22T12:12:41.529Z,100.00
2023-01-22T12:15:41.906Z,100.00
2023-01-22T12:18:51.328Z,100.00
2023-01-22T12:21:48.565Z,100.00
2023-01-22T12:24:24.227Z,100.00
2023-01-22T12:27:02.731Z,100.00
2023-01-22T12:29:42.779Z,100.00
2023-01-22T12:32:15.495Z,100.00
2023-01-22T12:34:53.049Z,100.00
2023-01-22T12:37:25.318Z,100.00
2023-01-22T12:39:55.783Z,100.00
2023-01-22T12:42:35.450Z,100.00
2023-01-22T12:45:34.787Z,100.00
2023-01-22T12:48:12.503Z,100.00
2023-01-22T12:50:51.089Z,100.00
2023-01-22T12:53:30.137Z,100.00
2023-01-22T12:56:10.909Z,100.00
2023-01-22T12:58:41.553Z,100.00
2023-01-22T13:01:12.052Z,100.00
2023-01-22T13:03:41.963Z,100.00
2023-01-22T13:06:31.148Z,100.00
2023-01-22T13:08:58.883Z,100.00
2023-01-22T13:11:44.624Z,100.00
2023-01-22T13:14:26.718Z,100.00
2023-01-22T13:16:57.516Z,100.00
2023-01-22T13:19:27.871Z,100.00
2023-01-22T13:22:02.478Z,100.00
2023-01-22T13:24:32.427Z,100.00
2023-01-22T13:27:04.083Z,100.00
2023-01-22T13:29:39.323Z,100.00
2023-01-22T13:32:30.699Z,100.00
2023-01-22T13:35:07.690Z,100.00
2023-01-22T13:37:35.876Z,100.00
2023-01-22T13:40:24.345Z,100.00
2023-01-22T13:42:52.407Z,100.00
2023-01-22T13:45:29.569Z,100.00
2023-01-22T13:47:59.640Z,100.00
2023-01-22T13:50:29.976Z,100.00
2023-01-22T13:53:04.590Z,100.00
2023-01-22T13:55:32.699Z,100.00
2023-01-22T13:58:05.249Z,100.00
2023-01-22T14:00:36.390Z,100.00
2023-01-22T14:03:21.794Z,100.00
2023-01-22T14:05:50.392Z,100.00
2023-01-22T14:08:20.830Z,100.00
2023-01-22T14:10:57.777Z,100.00
2023-01-22T14:13:25.472Z,100.00
2023-01-22T14:16:02.105Z,100.00
2023-01-22T14:18:29.996Z,100.00
2023-01-22T14:20:57.582Z,100.00
2023-01-22T14:23:25.220Z,100.00
2023-01-22T14:25:56.904Z,100.00
2023-01-22T14:28:30.179Z,100.00
2023-01-22T14:30:58.114Z,100.00
2023-01-22T14:33:31.363Z,100.00
2023-01-22T14:35:59.781Z,100.00
2023-01-22T14:38:28.010Z,100.00
2023-01-22T14:40:55.858Z,100.00
2023-01-22T14:43:23.590Z,100.00
2023-01-22T14:45:51.712Z,100.00
2023-01-22T14:48:22.353Z,100.00
2023-01-22T14:50:51.109Z,100.00
2023-01-22T14:53:19.685Z,100.00
2023-01-22T14:55:47.494Z,100.00
2023-01-22T14:58:17.463Z,100.00
2023-01-22T15:00:45.282Z,100.00
2023-01-22T15:03:15.861Z,100.00
2023-01-22T15:05:45.994Z,100.00
2023-01-22T15:08:13.650Z,100.00
2023-01-22T15:10:41.241Z,100.00
2023-01-22T15:13:09.018Z,100.00
2023-01-22T15:15:39.375Z,100.00
2023-01-22T15:18:07.103Z,100.00
2023-01-22T15:20:34.849Z,100.00
2023-01-22T15:23:02.473Z,100.00
2023-01-22T15:25:32.242Z,100.00
2023-01-22T15:28:02.911Z,100.00
2023-01-22T15:30:31.154Z,100.00
2023-01-22T15:32:58.782Z,100.00
2023-01-22T15:35:26.354Z,100.00
2023-01-22T15:37:53.958Z,100.00
2023-01-22T15:40:22.124Z,100.00
2023-01-22T15:42:49.865Z,100.00
2023-01-22T15:45:17.852Z,100.00
2023-01-22T15:47:47.950Z,100.00
2023-01-22T15:50:20.364Z,100.00
2023-01-22T15:52:48.320Z,100.00
2023-01-22T15:55:16.075Z,100.00
2023-01-22T15:57:46.367Z,100.00
2023-01-22T16:00:17.807Z,100.00
2023-01-22T16:02:45.902Z,100.00
2023-01-22T16:05:13.595Z,100.00
2023-01-22T16:07:42.813Z,100.00
2023-01-22T16:10:11.008Z,100.00
2023-01-22T16:12:38.941Z,100.00
2023-01-22T16:15:08.243Z,100.00
2023-01-22T16:17:35.838Z,100.00
2023-01-22T16:20:05.288Z,100.00
2023-01-22T16:22:32.969Z,100.00
2023-01-22T16:25:00.635Z,100.00
2023-01-22T16:27:28.719Z,100.00
2023-01-22T16:30:00.738Z,100.00
2023-01-22T16:32:28.875Z,100.00
2023-01-22T16:34:58.672Z,100.00
2023-01-22T16:37:26.328Z,100.00
2023-01-22T16:39:56.074Z,100.00
2023-01-22T16:42:25.785Z,100.00
2023-01-22T16:44:53.393Z,100.00
2023-01-22T16:47:21.089Z,100.00
2023-01-22T16:49:48.923Z,100.00
2023-01-22T16:52:22.335Z,100.00
2023-01-22T16:54:51.328Z,100.00
2023-01-22T16:57:21.350Z,100.00
2023-01-22T16:59:48.989Z,100.00
2023-01-22T17:02:19.060Z,100.00
2023-01-22T17:04:46.881Z,100.00
2023-01-22T17:07:31.518Z,100.00
2023-01-22T17:10:00.423Z,100.00
2023-01-22T17:12:28.453Z,100.00
2023-01-22T17:14:58.501Z,100.00
2023-01-22T17:17:26.393Z,100.00
2023-01-22T17:19:54.068Z,100.00
2023-01-22T17:22:21.736Z,100.00
2023-01-22T17:24:49.617Z,100.00
2023-01-22T17:27:18.519Z,100.00
2023-01-22T17:29:46.351Z,100.00
2023-01-22T17:32:13.958Z,100.00
2023-01-22T17:34:44.208Z,100.00
2023-01-22T17:37:13.764Z,100.00
2023-01-22T17:39:46.075Z,100.00
2023-01-22T17:42:16.250Z,100.00
2023-01-22T17:44:44.032Z,100.00
2023-01-22T17:47:14.485Z,100.00
2023-01-22T17:49:42.098Z,100.00
2023-01-22T17:52:12.404Z,100.00
2023-01-22T17:54:40.821Z,100.00
2023-01-22T17:57:09.093Z,100.00
2023-01-22T17:59:36.725Z,100.00
2023-01-22T18:02:05.097Z,100.00
2023-01-22T18:04:34.471Z,100.00
2023-01-22T18:07:02.061Z,100.00
2023-01-22T18:09:30.574Z,100.00
2023-01-22T18:12:00.426Z,100.00
2023-01-22T18:14:33.931Z,100.00
2023-01-22T18:17:02.532Z,100.00
2023-01-22T18:19:31.477Z,100.00
2023-01-22T18:21:59.108Z,100.00
2023-01-22T18:24:29.916Z,100.00
2023-01-22T18:27:00.005Z,100.00
2023-01-22T18:29:30.422Z,100.00
2023-01-22T18:32:00.432Z,100.00
2023-01-22T18:34:28.359Z,100.00
2023-01-22T18:36:55.926Z,100.00
2023-01-22T18:39:23.495Z,100.00
2023-01-22T18:41:51.126Z,100.00
2023-01-22T18:44:22.657Z,100.00
2023-01-22T18:46:52.342Z,100.00
2023-01-22T18:49:20.220Z,100.00
2023-01-22T18:51:47.863Z,100.00
2023-01-22T18:54:18.792Z,100.00
2023-01-22T18:56:47.788Z,100.00
2023-01-22T18:59:15.391Z,100.00
2023-01-22T19:01:49.990Z,100.00
2023-01-22T19:04:22.093Z,100.00
2023-01-22T19:06:57.093Z,100.00
2023-01-22T19:09:26.952Z,100.00
2023-01-22T19:11:55.518Z,100.00
2023-01-22T19:14:23.274Z,100.00
2023-01-22T19:16:53.636Z,100.00
2023-01-22T19:19:22.731Z,100.00
2023-01-22T19:21:55.628Z,100.00
2023-01-22T19:24:28.609Z,100.00
2023-01-22T19:26:58.968Z,100.00
2023-01-22T19:29:27.440Z,100.00
2023-01-22T19:31:56.992Z,100.00
2023-01-22T19:34:29.728Z,100.00
2023-01-22T19:37:01.272Z,100.00
2023-01-22T19:39:30.484Z,100.00
2023-01-22T19:42:04.051Z,100.00
2023-01-22T19:44:33.799Z,100.00
2023-01-22T19:47:04.771Z,100.00
2023-01-22T19:49:32.955Z,100.00
2023-01-22T19:52:00.536Z,100.00
2023-01-22T19:54:28.681Z,100.00
2023-01-22T19:56:56.325Z,100.00
2023-01-22T19:59:25.213Z,100.00
2023-01-22T20:01:55.345Z,100.00
2023-01-22T20:04:28.737Z,100.00
2023-01-22T20:07:01.896Z,100.00
2023-01-22T20:09:31.850Z,100.00
2023-01-22T20:12:03.060Z,100.00
2023-01-22T20:14:32.259Z,100.00
2023-01-22T20:17:01.216Z,100.00
2023-01-22T20:19:34.410Z,100.00
2023-01-22T20:22:04.353Z,100.00
2023-01-22T20:24:32.245Z,100.00
2023-01-22T20:27:01.254Z,100.00
2023-01-22T20:29:29.121Z,100.00
2023-01-22T20:31:59.410Z,100.00
2023-01-22T20:34:30.408Z,100.00
2023-01-22T20:36:58.324Z,100.00
2023-01-22T20:39:28.533Z,100.00
2023-01-22T20:41:56.382Z,100.00
2023-01-22T20:44:24.312Z,100.00
2023-01-22T20:46:55.782Z,100.00
2023-01-22T20:49:23.349Z,100.00
2023-01-22T20:51:50.991Z,100.00
2023-01-22T20:54:19.130Z,100.00
2023-01-22T20:56:50.644Z,100.00
2023-01-22T20:59:19.306Z,100.00
2023-01-22T21:01:47.820Z,100.00
2023-01-22T21:04:15.791Z,100.00
2023-01-22T21:06:43.663Z,100.00
2023-01-22T21:09:11.976Z,100.00
2023-01-22T21:11:42.095Z,100.00
2023-01-22T21:14:15.556Z,100.00
2023-01-22T21:16:47.029Z,100.00
2023-01-22T21:19:23.023Z,100.00
2023-01-22T21:21:51.078Z,100.00
2023-01-22T21:24:18.783Z,100.00
2023-01-22T21:26:46.422Z,100.00
2023-01-22T21:29:16.995Z,100.00
2023-01-22T21:31:48.977Z,100.00
2023-01-22T21:34:18.589Z,100.00
2023-01-22T21:36:49.811Z,100.00
2023-01-22T21:39:26.007Z,100.00
2023-01-22T21:42:14.152Z,100.00
2023-01-22T21:44:59.289Z,100.00
2023-01-22T21:47:26.971Z,100.00
2023-01-22T21:49:56.670Z,100.00
2023-01-22T21:52:24.254Z,100.00
2023-01-22T21:54:52.004Z,100.00
2023-01-22T21:57:22.014Z,100.00
2023-01-22T21:59:49.622Z,100.00
2023-01-22T22:02:19.770Z,100.00
2023-01-22T22:04:47.445Z,100.00
2023-01-22T22:07:15.604Z,100.00
2023-01-22T22:09:44.231Z,100.00
2023-01-22T22:12:12.032Z,100.00
2023-01-22T22:14:39.763Z,100.00
2023-01-22T22:17:09.814Z,100.00
2023-01-22T22:19:37.496Z,100.00
2023-01-22T22:22:05.116Z,100.00
2023-01-22T22:24:34.943Z,100.00
2023-01-22T22:27:02.543Z,100.00
2023-01-22T22:29:31.141Z,100.00
2023-01-22T22:31:58.800Z,100.00
2023-01-22T22:34:28.792Z,100.00
2023-01-22T22:36:56.429Z,100.00
2023-01-22T22:39:26.215Z,100.00
2023-01-22T22:41:53.817Z,100.00
2023-01-22T22:44:21.396Z,100.00
2023-01-22T22:46:49.009Z,100.00
2023-01-22T22:49:20.974Z,100.00
2023-01-22T22:51:50.823Z,100.00
2023-01-22T22:54:20.528Z,100.00
2023-01-22T22:56:49.854Z,100.00
2023-01-22T22:59:18.622Z,100.00
2023-01-22T23:01:46.435Z,100.00
2023-01-22T23:04:14.215Z,100.00
2023-01-22T23:06:45.356Z,100.00
2023-01-22T23:09:16.414Z,100.00
2023-01-22T23:11:44.671Z,100.00
2023-01-22T23:14:12.820Z,100.00
2023-01-22T23:16:43.080Z,100.00
2023-01-22T23:19:21.486Z,100.00
2023-01-22T23:21:55.125Z,100.00
2023-01-22T23:24:24.939Z,100.00
2023-01-22T23:26:55.201Z,100.00
2023-01-22T23:29:26.624Z,100.00
2023-01-22T23:31:55.942Z,100.00
2023-01-22T23:34:24.355Z,100.00
2023-01-22T23:36:52.669Z,100.00
2023-01-22T23:39:21.762Z,100.00
2023-01-22T23:41:49.429Z,100.00
2023-01-22T23:44:17.481Z,100.00
2023-01-22T23:46:45.803Z,100.00
2023-01-22T23:49:13.573Z,100.00
2023-01-22T23:51:43.599Z,100.00
2023-01-22T23:54:11.487Z,100.00
2023-01-22T23:56:39.121Z,100.00
2023-01-22T23:59:08.120Z,100.00
